Terminal Aerodrome Forecast
Issued by NWS Cleveland, OH

Home | Current Version | Previous Version | Graphics & Text | Print | Product List | Glossary Off
Versions: 1 2 3 4 5 6 7 8 9 10 11 12 13 14 15 16 17 18 19 20 21 22 23 24 25 26 27 28 29 30

000
FTUS41 KCLE 311700 RRA
TAFCLE
TAF
KCLE 311748Z 3118/0124 20008KT P6SM SCT030 BKN150
      TEMPO 3118/3119 BKN030
     FM010000 20006KT P6SM SCT100 OVC250
     FM010800 VRB04KT 5SM -SN OVC035
     FM011000 10006KT 1SM -SN OVC015
     FM011600 06010KT 3/4SM -SN OVC009
     FM012000 04015G30KT 1/2SM SN BLSN OVC004=

USA.gov is the U.S. government's official web portal to all federal, state and local government web resources and services.